createdAt,value
2019-04-28T00:00:53.039Z,13.87
2019-04-28T00:03:22.891Z,14.60
2019-04-28T00:05:52.126Z,17.87
2019-04-28T00:08:21.380Z,13.90
2019-04-28T00:10:53.054Z,11.67
2019-04-28T00:13:21.446Z,13.07
2019-04-28T00:15:51.593Z,12.53
2019-04-28T00:18:21.987Z,14.30
2019-04-28T00:21:11.275Z,12.17
2019-04-28T00:23:51.122Z,14.63
2019-04-28T00:26:32.505Z,17.13
2019-04-28T00:29:01.439Z,17.90
2019-04-28T00:31:31.314Z,14.70
2019-04-28T00:34:01.491Z,10.67
2019-04-28T00:36:31.331Z,12.13
2019-04-28T00:39:01.491Z,13.83
2019-04-28T00:41:30.973Z,12.17
2019-04-28T00:44:01.840Z,11.30
2019-04-28T00:46:34.792Z,20.80
2019-04-28T00:49:03.862Z,13.27
2019-04-28T00:51:32.908Z,19.30
2019-04-28T00:54:02.015Z,14.93
2019-04-28T00:56:31.719Z,11.67
2019-04-28T00:59:01.670Z,19.63
2019-04-28T01:01:52.246Z,12.80
2019-04-28T01:04:22.052Z,8.97
2019-04-28T01:06:52.046Z,13.03
2019-04-28T01:09:21.909Z,16.60
2019-04-28T01:11:53.376Z,13.37
2019-04-28T01:14:22.107Z,14.17
2019-04-28T01:17:07.403Z,10.97
2019-04-28T01:19:39.849Z,10.23
2019-04-28T01:22:12.954Z,12.00
2019-04-28T01:24:42.471Z,13.23
2019-04-28T01:27:25.558Z,10.20
2019-04-28T01:30:05.341Z,16.07
2019-04-28T01:32:32.993Z,15.00
2019-04-28T01:35:01.903Z,12.67
2019-04-28T01:37:30.964Z,18.47
2019-04-28T01:39:59.977Z,9.13
2019-04-28T01:42:30.242Z,13.07
2019-04-28T01:45:00.631Z,29.10
2019-04-28T01:47:30.537Z,18.90
2019-04-28T01:50:01.860Z,7.57
2019-04-28T01:52:30.431Z,11.63
2019-04-28T01:55:00.429Z,12.97
2019-04-28T01:57:29.963Z,16.20
2019-04-28T01:59:59.978Z,18.37
2019-04-28T02:02:30.015Z,16.60
2019-04-28T02:04:59.926Z,14.47
2019-04-28T02:07:30.650Z,12.33
2019-04-28T02:10:00.720Z,20.60
2019-04-28T02:12:30.430Z,21.60
2019-04-28T02:15:01.061Z,20.17
2019-04-28T02:17:30.727Z,11.77
2019-04-28T02:20:00.721Z,16.23
2019-04-28T02:22:40.008Z,14.20
2019-04-28T02:25:09.986Z,15.50
2019-04-28T02:27:40.105Z,18.97
2019-04-28T02:30:11.338Z,16.03
2019-04-28T02:32:41.075Z,11.87
2019-04-28T02:35:10.808Z,16.47
2019-04-28T02:37:40.747Z,10.03
2019-04-28T02:40:10.835Z,13.37
2019-04-28T02:42:41.037Z,11.07
2019-04-28T02:45:11.678Z,12.50
2019-04-28T02:47:42.190Z,9.37
2019-04-28T02:50:21.240Z,10.77
2019-04-28T02:53:11.639Z,11.93
2019-04-28T02:55:41.370Z,18.37
2019-04-28T02:58:10.702Z,9.53
2019-04-28T03:00:52.741Z,13.77
2019-04-28T03:03:12.264Z,20.00
2019-04-28T03:05:41.420Z,7.77
2019-04-28T03:08:11.275Z,13.83
2019-04-28T03:10:41.190Z,14.03
2019-04-28T03:13:13.111Z,15.40
2019-04-28T03:15:41.645Z,14.17
2019-04-28T03:18:11.469Z,9.97
2019-04-28T03:20:41.940Z,17.13
2019-04-28T03:23:12.886Z,11.07
2019-04-28T03:26:06.363Z,13.70
2019-04-28T03:28:47.641Z,14.70
2019-04-28T03:32:07.715Z,8.47
2019-04-28T03:34:13.210Z,13.77
2019-04-28T03:36:42.280Z,9.13
2019-04-28T03:39:11.308Z,10.00
2019-04-28T03:41:40.656Z,12.73
2019-04-28T03:44:11.425Z,9.77
2019-04-28T03:46:47.014Z,15.17
2019-04-28T03:49:31.984Z,10.47
2019-04-28T03:52:02.400Z,13.90
2019-04-28T03:54:31.503Z,14.70
2019-04-28T03:57:01.344Z,12.47
2019-04-28T03:59:31.221Z,13.70
2019-04-28T04:02:03.241Z,19.30
2019-04-28T04:04:32.217Z,7.97
2019-04-28T04:07:01.661Z,10.73
2019-04-28T04:10:01.791Z,13.00
2019-04-28T04:12:51.041Z,8.03
2019-04-28T04:15:41.472Z,9.17
2019-04-28T04:18:14.621Z,10.87
2019-04-28T04:20:43.643Z,10.93
2019-04-28T04:23:12.882Z,6.03
2019-04-28T04:25:42.037Z,12.10
2019-04-28T04:28:11.041Z,12.77
2019-04-28T04:30:40.903Z,14.60
2019-04-28T04:33:11.191Z,12.50
2019-04-28T04:35:43.127Z,13.67
2019-04-28T04:38:11.448Z,11.37
2019-04-28T04:40:41.280Z,9.17
2019-04-28T04:43:11.400Z,10.60
2019-04-28T04:45:40.793Z,8.83
2019-04-28T04:48:11.624Z,10.17
2019-04-28T04:50:41.299Z,9.10
2019-04-28T04:53:11.160Z,15.63
2019-04-28T04:55:40.980Z,10.93
2019-04-28T04:58:10.696Z,11.03
2019-04-28T05:01:00.810Z,11.90
2019-04-28T05:03:32.363Z,15.83
2019-04-28T05:06:01.569Z,11.97
2019-04-28T05:08:30.446Z,13.17
2019-04-28T05:11:00.085Z,8.57
2019-04-28T05:13:30.011Z,4.10
2019-04-28T05:15:59.794Z,11.77
2019-04-28T05:18:29.793Z,17.60
2019-04-28T05:20:59.507Z,9.93
2019-04-28T05:23:37.346Z,9.73
2019-04-28T05:26:08.004Z,12.03
2019-04-28T05:28:44.047Z,12.37
2019-04-28T05:31:13.588Z,11.40
2019-04-28T05:33:39.618Z,8.87
2019-04-28T05:36:11.799Z,13.63
2019-04-28T05:38:42.153Z,9.03
2019-04-28T05:41:11.317Z,16.50
2019-04-28T05:43:40.557Z,17.40
2019-04-28T05:46:10.633Z,12.17
2019-04-28T05:48:51.203Z,14.50
2019-04-28T05:51:21.171Z,7.73
2019-04-28T05:54:09.844Z,9.07
2019-04-28T05:57:02.372Z,10.00
2019-04-28T05:59:53.464Z,6.20
2019-04-28T06:02:27.113Z,11.83
2019-04-28T06:04:56.208Z,13.10
2019-04-28T06:07:34.261Z,8.70
2019-04-28T06:10:03.385Z,10.17
2019-04-28T06:12:32.426Z,6.83
2019-04-28T06:15:01.673Z,8.63
2019-04-28T06:17:30.601Z,10.03
2019-04-28T06:20:00.181Z,13.03
2019-04-28T06:22:29.231Z,9.27
2019-04-28T06:24:58.563Z,7.07
2019-04-28T06:27:27.803Z,9.07
2019-04-28T06:29:56.840Z,7.57
2019-04-28T06:32:26.192Z,8.67
2019-04-28T06:34:55.614Z,12.60
2019-04-28T06:37:24.497Z,8.87
2019-04-28T06:39:53.417Z,14.77
2019-04-28T06:42:22.456Z,5.27
2019-04-28T06:44:52.917Z,11.70
2019-04-28T06:47:22.060Z,10.43
2019-04-28T06:49:51.100Z,7.17
2019-04-28T06:52:20.171Z,7.53
2019-04-28T06:54:49.060Z,6.87
2019-04-28T06:57:20.705Z,9.40
2019-04-28T06:59:49.649Z,11.00
2019-04-28T07:02:18.582Z,10.73
2019-04-28T07:04:47.690Z,10.57
2019-04-28T07:07:16.648Z,6.30
2019-04-28T07:09:46.017Z,7.30
2019-04-28T07:12:15.085Z,6.17
2019-04-28T07:14:44.130Z,8.00
2019-04-28T07:17:13.012Z,7.07
2019-04-28T07:19:43.625Z,6.20
2019-04-28T07:22:19.549Z,7.37
2019-04-28T07:24:48.626Z,7.63
2019-04-28T07:27:18.101Z,5.20
2019-04-28T07:29:47.128Z,7.00
2019-04-28T07:32:16.148Z,6.80
2019-04-28T07:34:45.305Z,7.77
2019-04-28T07:37:14.693Z,7.70
2019-04-28T07:39:43.971Z,6.17
2019-04-28T07:42:13.309Z,4.03
2019-04-28T07:44:42.381Z,5.83
2019-04-28T07:47:11.538Z,2.93
2019-04-28T07:49:40.376Z,5.73
2019-04-28T07:52:21.094Z,4.77
2019-04-28T07:54:50.673Z,8.23
2019-04-28T07:57:19.939Z,4.73
2019-04-28T07:59:49.132Z,7.37
2019-04-28T08:02:18.362Z,5.73
2019-04-28T08:04:47.491Z,7.33
2019-04-28T08:07:16.516Z,5.23
2019-04-28T08:09:45.518Z,3.13
2019-04-28T08:12:14.625Z,5.70
2019-04-28T08:14:43.609Z,6.13
2019-04-28T08:17:12.643Z,10.23
2019-04-28T08:19:41.576Z,3.57
2019-04-28T08:22:10.809Z,5.53
2019-04-28T08:24:39.808Z,3.10
2019-04-28T08:27:08.867Z,4.70
2019-04-28T08:29:37.889Z,4.73
2019-04-28T08:32:21.177Z,4.57
2019-04-28T08:34:50.283Z,4.53
2019-04-28T08:37:19.330Z,2.13
2019-04-28T08:39:48.392Z,5.07
2019-04-28T08:42:17.387Z,3.13
2019-04-28T08:44:48.237Z,5.77
2019-04-28T08:47:17.438Z,4.67
2019-04-28T08:50:07.297Z,5.77
2019-04-28T08:52:36.186Z,1.93
2019-04-28T08:55:05.729Z,5.07
2019-04-28T08:57:34.815Z,3.23
2019-04-28T09:00:04.274Z,3.17
2019-04-28T09:02:33.422Z,8.47
2019-04-28T09:05:02.408Z,4.67
2019-04-28T09:07:32.363Z,5.07
2019-04-28T09:10:01.625Z,4.87
2019-04-28T09:12:30.717Z,3.83
2019-04-28T09:14:59.724Z,4.20
2019-04-28T09:17:28.657Z,4.00
2019-04-28T09:19:57.689Z,4.57
2019-04-28T09:22:26.736Z,3.73
2019-04-28T09:24:55.741Z,4.73
2019-04-28T09:27:24.675Z,3.03
2019-04-28T09:29:53.761Z,4.33
2019-04-28T09:32:22.683Z,3.60
2019-04-28T09:34:58.583Z,2.50
2019-04-28T09:37:27.991Z,5.40
2019-04-28T09:40:01.347Z,4.10
2019-04-28T09:42:47.953Z,1.23
2019-04-28T09:45:25.924Z,4.40
2019-04-28T09:47:54.885Z,3.23
2019-04-28T09:50:24.009Z,2.27
2019-04-28T09:52:53.046Z,2.23
2019-04-28T09:55:22.124Z,4.53
2019-04-28T09:57:51.312Z,4.57
2019-04-28T10:00:20.613Z,3.00
2019-04-28T10:02:49.462Z,2.23
2019-04-28T10:05:18.493Z,3.20
2019-04-28T10:07:47.436Z,1.57
2019-04-28T10:10:16.745Z,1.47
2019-04-28T10:12:46.098Z,2.47
2019-04-28T10:15:15.587Z,1.27
2019-04-28T10:17:45.070Z,1.83
2019-04-28T10:20:14.163Z,2.33
2019-04-28T10:22:43.234Z,2.23
2019-04-28T10:25:13.192Z,2.17
2019-04-28T10:27:42.197Z,1.73
2019-04-28T10:30:13.309Z,1.63
2019-04-28T10:32:45.367Z,2.10
2019-04-28T10:35:14.862Z,2.70
2019-04-28T10:37:45.667Z,1.43
2019-04-28T10:40:32.263Z,1.50
2019-04-28T10:43:01.327Z,1.43
2019-04-28T10:45:32.834Z,0.87
2019-04-28T10:48:01.862Z,1.43
2019-04-28T10:50:30.943Z,0.90
2019-04-28T10:53:00.035Z,0.70
2019-04-28T10:55:28.881Z,0.83
2019-04-28T10:57:58.168Z,1.00
2019-04-28T11:00:29.366Z,1.10
2019-04-28T11:02:58.400Z,2.00
2019-04-28T11:05:32.694Z,1.23
2019-04-28T11:08:03.586Z,1.10
2019-04-28T11:10:32.804Z,0.80
2019-04-28T11:13:01.823Z,0.80
2019-04-28T11:15:36.094Z,2.70
2019-04-28T11:18:07.034Z,0.87
2019-04-28T11:20:36.415Z,2.30
2019-04-28T11:23:05.467Z,2.17
2019-04-28T11:25:34.524Z,3.67
2019-04-28T11:28:03.574Z,1.40
2019-04-28T11:30:32.586Z,1.63
2019-04-28T11:33:23.456Z,1.27
2019-04-28T11:35:52.339Z,1.37
2019-04-28T11:38:21.498Z,1.27
2019-04-28T11:40:50.746Z,0.90
2019-04-28T11:43:19.806Z,1.17
2019-04-28T11:45:48.931Z,1.00
2019-04-28T11:48:17.953Z,0.50
2019-04-28T11:50:46.855Z,1.40
2019-04-28T11:53:15.860Z,2.20
2019-04-28T11:55:44.783Z,0.80
2019-04-28T11:58:14.090Z,16.97
2019-04-28T12:00:43.243Z,2.00
2019-04-28T12:03:12.443Z,2.07
2019-04-28T12:05:44.694Z,2.67
2019-04-28T12:08:13.798Z,1.33
2019-04-28T12:10:48.430Z,0.93
2019-04-28T12:13:35.481Z,1.23
2019-04-28T12:16:22.668Z,0.47
2019-04-28T12:19:07.587Z,0.87
2019-04-28T12:21:36.613Z,0.80
2019-04-28T12:24:05.965Z,0.73
2019-04-28T12:26:34.999Z,0.90
2019-04-28T12:29:04.243Z,2.47
2019-04-28T12:31:33.176Z,1.30
2019-04-28T12:34:02.137Z,1.03
2019-04-28T12:36:31.004Z,0.50
2019-04-28T12:38:59.905Z,0.60
2019-04-28T12:41:29.215Z,1.20
2019-04-28T12:43:58.251Z,0.80
2019-04-28T12:46:27.580Z,0.60
2019-04-28T12:49:00.473Z,1.33
2019-04-28T12:51:29.523Z,0.70
2019-04-28T12:54:02.073Z,0.40
2019-04-28T12:56:31.394Z,0.47
2019-04-28T12:59:07.206Z,1.10
2019-04-28T13:01:43.210Z,1.57
2019-04-28T13:04:31.943Z,0.60
2019-04-28T13:07:05.562Z,0.30
2019-04-28T13:09:34.578Z,0.50
2019-04-28T13:12:05.057Z,0.50
2019-04-28T13:14:34.172Z,0.73
2019-04-28T13:17:03.380Z,0.40
2019-04-28T13:19:32.523Z,0.40
2019-04-28T13:22:01.633Z,0.50
2019-04-28T13:24:31.565Z,0.40
2019-04-28T13:27:00.817Z,0.40
2019-04-28T13:29:29.812Z,0.50
2019-04-28T13:31:58.835Z,0.60
2019-04-28T13:34:29.543Z,0.70
2019-04-28T13:36:58.865Z,0.77
2019-04-28T13:39:39.105Z,0.70
2019-04-28T13:42:08.090Z,1.97
2019-04-28T13:44:54.835Z,1.30
2019-04-28T13:47:23.883Z,0.80
2019-04-28T13:49:59.873Z,0.60
2019-04-28T13:52:28.963Z,1.00
2019-04-28T13:55:19.814Z,2.90
2019-04-28T13:57:48.960Z,1.30
2019-04-28T14:00:20.095Z,3.73
2019-04-28T14:02:59.229Z,2.80
2019-04-28T14:05:40.880Z,1.10
2019-04-28T14:08:09.895Z,1.30
2019-04-28T14:10:38.939Z,0.87
2019-04-28T14:13:08.061Z,1.47
2019-04-28T14:15:37.242Z,2.43
2019-04-28T14:18:06.222Z,1.10
2019-04-28T14:20:35.172Z,1.37
2019-04-28T14:23:04.530Z,1.93
2019-04-28T14:25:33.702Z,0.93
2019-04-28T14:28:02.771Z,1.10
2019-04-28T14:30:32.022Z,1.10
2019-04-28T14:33:01.178Z,1.43
2019-04-28T14:35:30.308Z,0.87
2019-04-28T14:37:59.380Z,1.23
2019-04-28T14:40:28.606Z,1.13
2019-04-28T14:42:57.700Z,1.13
2019-04-28T14:45:26.858Z,0.80
2019-04-28T14:47:56.007Z,0.80
2019-04-28T14:50:25.175Z,0.90
2019-04-28T14:52:54.285Z,1.03
2019-04-28T14:55:23.582Z,0.70
2019-04-28T14:57:52.928Z,0.70
2019-04-28T15:00:26.997Z,1.23
2019-04-28T15:03:03.549Z,1.27
2019-04-28T15:05:50.481Z,2.00
2019-04-28T15:08:28.995Z,1.80
2019-04-28T15:11:06.578Z,0.60
2019-04-28T15:13:35.663Z,0.60
2019-04-28T15:16:05.473Z,0.70
2019-04-28T15:18:34.498Z,0.77
2019-04-28T15:21:03.554Z,0.93
2019-04-28T15:23:32.763Z,0.50
2019-04-28T15:26:01.826Z,0.47
2019-04-28T15:28:30.933Z,8.17
2019-04-28T15:30:59.944Z,2.73
2019-04-28T15:33:28.939Z,1.10
2019-04-28T15:35:58.016Z,0.67
2019-04-28T15:38:27.050Z,0.87
2019-04-28T15:40:56.807Z,0.80
2019-04-28T15:43:25.922Z,0.87
2019-04-28T15:45:54.988Z,0.47
2019-04-28T15:48:23.868Z,0.70
2019-04-28T15:50:52.850Z,0.50
2019-04-28T15:53:21.898Z,0.63
2019-04-28T15:56:00.866Z,0.40
2019-04-28T15:58:31.805Z,0.93
2019-04-28T16:01:01.034Z,1.17
2019-04-28T16:03:29.994Z,0.60
2019-04-28T16:06:00.114Z,0.50
2019-04-28T16:08:29.244Z,0.57
2019-04-28T16:10:58.210Z,1.17
2019-04-28T16:13:27.165Z,1.20
2019-04-28T16:15:56.132Z,0.80
2019-04-28T16:18:25.201Z,4.40
2019-04-28T16:20:54.241Z,1.00
2019-04-28T16:23:23.180Z,2.13
2019-04-28T16:25:52.043Z,0.77
2019-04-28T16:28:21.326Z,0.60
2019-04-28T16:30:50.338Z,1.20
2019-04-28T16:33:19.648Z,1.63
2019-04-28T16:35:48.524Z,0.50
2019-04-28T16:38:17.582Z,0.80
2019-04-28T16:40:47.576Z,0.83
2019-04-28T16:43:20.317Z,0.97
2019-04-28T16:45:49.247Z,1.90
2019-04-28T16:48:18.203Z,1.87
2019-04-28T16:50:47.193Z,1.17
2019-04-28T16:53:16.271Z,0.97
2019-04-28T16:56:19.698Z,1.13
2019-04-28T16:59:07.849Z,0.90
2019-04-28T17:01:46.484Z,1.70
2019-04-28T17:04:15.472Z,2.90
2019-04-28T17:06:44.566Z,0.80
2019-04-28T17:09:14.228Z,1.63
2019-04-28T17:11:43.292Z,0.77
2019-04-28T17:14:12.567Z,0.60
2019-04-28T17:16:41.868Z,0.50
2019-04-28T17:19:11.137Z,1.00
2019-04-28T17:21:40.275Z,0.80
2019-04-28T17:24:09.265Z,0.80
2019-04-28T17:26:38.480Z,1.37
2019-04-28T17:29:07.524Z,0.53
2019-04-28T17:31:36.534Z,1.20
2019-04-28T17:34:06.626Z,1.23
2019-04-28T17:36:35.591Z,0.53
2019-04-28T17:39:09.398Z,3.30
2019-04-28T17:41:38.391Z,0.93
2019-04-28T17:44:07.416Z,0.83
2019-04-28T17:46:36.374Z,0.90
2019-04-28T17:49:05.405Z,0.60
2019-04-28T17:51:34.650Z,2.47
2019-04-28T17:54:03.625Z,0.70
2019-04-28T17:56:32.875Z,2.53
2019-04-28T17:59:01.810Z,0.70
2019-04-28T18:02:08.449Z,0.70
2019-04-28T18:04:55.606Z,0.67
2019-04-28T18:07:27.991Z,0.97
2019-04-28T18:09:56.861Z,2.20
2019-04-28T18:12:25.802Z,1.37
2019-04-28T18:14:57.799Z,1.10
2019-04-28T18:17:45.952Z,0.83
2019-04-28T18:20:15.655Z,0.83
2019-04-28T18:22:44.705Z,3.73
2019-04-28T18:25:15.315Z,0.90
2019-04-28T18:27:44.288Z,3.40
2019-04-28T18:30:15.318Z,1.77
2019-04-28T18:33:12.961Z,1.50
2019-04-28T18:35:45.400Z,1.80
2019-04-28T18:38:35.244Z,1.67
2019-04-28T18:41:18.272Z,1.27
2019-04-28T18:44:06.742Z,2.23
2019-04-28T18:46:36.189Z,5.13
2019-04-28T18:49:05.321Z,1.43
2019-04-28T18:51:34.685Z,1.67
2019-04-28T18:54:03.760Z,1.37
2019-04-28T18:56:33.134Z,1.40
2019-04-28T18:59:02.058Z,1.73
2019-04-28T19:01:55.042Z,2.00
2019-04-28T19:04:24.389Z,1.40
2019-04-28T19:07:04.304Z,1.10
2019-04-28T19:09:37.006Z,3.43
2019-04-28T19:12:33.982Z,1.90
2019-04-28T19:15:20.706Z,1.83
2019-04-28T19:17:59.710Z,2.43
2019-04-28T19:20:28.726Z,2.27
2019-04-28T19:22:57.609Z,2.17
2019-04-28T19:25:26.445Z,1.43
2019-04-28T19:27:55.506Z,1.17
2019-04-28T19:30:25.058Z,1.50
2019-04-28T19:32:54.357Z,2.97
2019-04-28T19:35:23.377Z,5.90
2019-04-28T19:37:52.270Z,5.33
2019-04-28T19:40:21.246Z,5.67
2019-04-28T19:42:50.131Z,3.10
2019-04-28T19:45:20.509Z,3.73
2019-04-28T19:47:49.606Z,4.87
2019-04-28T19:50:18.545Z,4.57
2019-04-28T19:52:47.725Z,4.87
2019-04-28T19:55:23.712Z,9.37
2019-04-28T19:58:20.915Z,10.73
2019-04-28T20:00:56.790Z,7.87
2019-04-28T20:03:25.880Z,21.77
2019-04-28T20:05:55.391Z,13.00
2019-04-28T20:08:24.354Z,5.70
2019-04-28T20:10:53.270Z,5.47
2019-04-28T20:13:22.723Z,4.70
2019-04-28T20:15:51.765Z,3.33
2019-04-28T20:18:20.816Z,2.63
2019-04-28T20:20:49.898Z,2.53
2019-04-28T20:23:18.767Z,2.00
2019-04-28T20:25:47.713Z,3.20
2019-04-28T20:28:16.624Z,2.00
2019-04-28T20:30:45.903Z,4.40
2019-04-28T20:33:15.261Z,3.90
2019-04-28T20:35:49.702Z,2.83
2019-04-28T20:38:24.636Z,2.60
2019-04-28T20:41:00.576Z,2.47
2019-04-28T20:43:29.666Z,2.97
2019-04-28T20:45:58.778Z,3.23
2019-04-28T20:48:27.797Z,3.40
2019-04-28T20:50:56.730Z,3.27
2019-04-28T20:53:25.678Z,4.47
2019-04-28T20:55:54.685Z,2.10
2019-04-28T20:58:23.671Z,3.00
2019-04-28T21:00:52.611Z,4.03
2019-04-28T21:03:21.868Z,3.97
2019-04-28T21:05:50.702Z,4.23
2019-04-28T21:08:19.655Z,2.67
2019-04-28T21:10:49.295Z,3.80
2019-04-28T21:13:18.176Z,4.20
2019-04-28T21:15:47.385Z,4.73
2019-04-28T21:18:16.258Z,2.20
2019-04-28T21:20:46.307Z,3.10
2019-04-28T21:23:15.334Z,2.33
2019-04-28T21:25:44.352Z,3.67
2019-04-28T21:28:13.473Z,3.10
2019-04-28T21:30:42.569Z,6.13
2019-04-28T21:33:11.675Z,3.47
2019-04-28T21:35:40.631Z,3.57
2019-04-28T21:38:09.589Z,2.50
2019-04-28T21:40:40.109Z,3.60
2019-04-28T21:43:27.087Z,3.30
2019-04-28T21:46:06.528Z,4.43
2019-04-28T21:48:47.265Z,6.70
2019-04-28T21:51:16.667Z,7.43
2019-04-28T21:53:45.677Z,6.93
2019-04-28T21:56:14.717Z,4.47
2019-04-28T21:58:43.630Z,7.13
2019-04-28T22:01:16.539Z,5.77
2019-04-28T22:03:45.851Z,5.23
2019-04-28T22:06:14.843Z,4.37
2019-04-28T22:08:43.825Z,4.93
2019-04-28T22:11:13.143Z,6.10
2019-04-28T22:13:43.625Z,4.47
2019-04-28T22:16:12.544Z,4.17
2019-04-28T22:18:41.576Z,4.07
2019-04-28T22:21:10.598Z,5.67
2019-04-28T22:23:53.009Z,4.23
2019-04-28T22:26:40.285Z,4.13
2019-04-28T22:29:09.635Z,3.83
2019-04-28T22:31:39.211Z,4.27
2019-04-28T22:34:08.399Z,3.67
2019-04-28T22:36:37.465Z,3.13
2019-04-28T22:39:07.435Z,4.37
2019-04-28T22:41:36.565Z,3.47
2019-04-28T22:44:06.296Z,3.37
2019-04-28T22:46:35.517Z,5.00
2019-04-28T22:49:05.530Z,4.90
2019-04-28T22:51:35.238Z,3.30
2019-04-28T22:54:23.915Z,2.90
2019-04-28T22:57:03.376Z,3.53
2019-04-28T22:59:36.563Z,4.13
2019-04-28T23:02:16.691Z,3.40
2019-04-28T23:04:52.242Z,2.47
2019-04-28T23:07:21.399Z,3.30
2019-04-28T23:09:50.505Z,2.90
2019-04-28T23:12:20.680Z,4.37
2019-04-28T23:14:49.996Z,3.00
2019-04-28T23:17:20.243Z,3.30
2019-04-28T23:19:49.785Z,4.13
2019-04-28T23:22:46.686Z,2.50
2019-04-28T23:25:08.821Z,2.30
2019-04-28T23:27:38.008Z,5.23
2019-04-28T23:30:09.190Z,3.97
2019-04-28T23:32:38.551Z,5.60
2019-04-28T23:35:07.888Z,2.97
2019-04-28T23:37:36.896Z,4.90
2019-04-28T23:40:07.501Z,4.97
2019-04-28T23:42:59.369Z,3.70
2019-04-28T23:45:28.583Z,4.10
2019-04-28T23:47:57.626Z,2.80
2019-04-28T23:50:36.024Z,3.23
2019-04-28T23:53:08.702Z,3.13
2019-04-28T23:55:37.651Z,3.23
2019-04-28T23:58:06.873Z,2.90
